Khanom, Thailand

7:34 AM ICT on August 31, 2016 (GMT +0700)
Samui | | Change Station

Elev 66 ft 9.55 °N, 100.06 °E | Updated 4 minutes ago

Partly Cloudy
Partly Cloudy
82 °F
Feels Like 91 °F
N
0
Wind Variable Wind from North

Today
High -- | Low -- °F
--% Chance of Precip.
Yesterday
High -- | Low -- °F
Precip. -- in
Pressure 29.89 in
Visibility 6.2 miles
Clouds Few 2000 ft
Heat Index 91 °F
Dew Point 77 °F
Humidity 84%
Rainfall 0.00 in
Snow Depth Not available.
6:11 AM 6:29 PM
Waning Crescent, 2% visible
METAR VTSM 310030Z 00000KT 9999 FEW020 28/25 Q1012
Pressure 29.89 in
Visibility 6.2 miles
Clouds Few 2000 ft
Heat Index 91 °F
Dew Point 77 °F
Humidity 84%
Rainfall 0.00 in
Snow Depth Not available.
6:11 AM 6:29 PM
Waning Crescent, 2% visible
METAR VTSM 310030Z 00000KT 9999 FEW020 28/25 Q1012

10-Day Weather Forecast

No radar image for this location.
×

Almanac

Astronomy

Aug. 31, 2016 Rise Set
Actual Time
Civil Twilight
Nautical Twilight
Astronomical Twilight
Moon
Length of Visible Light
Length of Day
Tomorrow will be .
, % of the Moon is Illuminated

Today's Extremes

Country Highs Country Lows

Community

WunderPhotos

Upload Photos

1,935,963 photos uploaded!

WunderBlog® & News

Nearby

Air Quality

  Air Quality AQ Index Pollutant
Not available.

Snow Depth

Station Depth Elevation

Earthquake Activity

City Distance Mag. Time & Date
Minimum magnitude displayed is 2.5.

Coastal Water Temperatures

Place Temperature

Stations

Nearby Weather Stations

Station Location Temp. Windchill Dew Point Humidity Wind Precip. Elev Updated Type